sensor_id;sensor_type;location;lat;lon;timestamp;P1;durP1;ratioP1;P2;durP2;ratioP2
37851;SDS011;23691;52.486;4.650;2023-08-06T00:00:23;10.55;;;4.47;;
37851;SDS011;23691;52.486;4.650;2023-08-06T00:02:49;14.48;;;5.05;;
37851;SDS011;23691;52.486;4.650;2023-08-06T00:05:15;8.95;;;4.22;;
37851;SDS011;23691;52.486;4.650;2023-08-06T00:07:45;9.50;;;3.95;;
37851;SDS011;23691;52.486;4.650;2023-08-06T00:10:14;9.02;;;4.22;;
37851;SDS011;23691;52.486;4.650;2023-08-06T00:12:39;9.90;;;4.20;;
37851;SDS011;23691;52.486;4.650;2023-08-06T00:15:05;11.15;;;4.35;;
37851;SDS011;23691;52.486;4.650;2023-08-06T00:17:31;11.93;;;5.00;;
37851;SDS011;23691;52.486;4.650;2023-08-06T00:19:56;12.05;;;4.68;;
37851;SDS011;23691;52.486;4.650;2023-08-06T00:22:34;10.43;;;4.15;;
37851;SDS011;23691;52.486;4.650;2023-08-06T00:25:00;13.30;;;4.88;;
37851;SDS011;23691;52.486;4.650;2023-08-06T00:27:29;13.02;;;5.00;;
37851;SDS011;23691;52.486;4.650;2023-08-06T00:29:54;12.90;;;5.20;;
37851;SDS011;23691;52.486;4.650;2023-08-06T00:32:27;10.75;;;4.90;;
37851;SDS011;23691;52.486;4.650;2023-08-06T00:34:52;9.27;;;4.55;;
37851;SDS011;23691;52.486;4.650;2023-08-06T00:37:18;9.90;;;4.85;;
37851;SDS011;23691;52.486;4.650;2023-08-06T00:39:43;11.73;;;4.93;;
37851;SDS011;23691;52.486;4.650;2023-08-06T00:42:09;11.85;;;5.05;;
37851;SDS011;23691;52.486;4.650;2023-08-06T00:44:36;10.77;;;4.80;;
37851;SDS011;23691;52.486;4.650;2023-08-06T00:47:03;10.82;;;5.07;;
37851;SDS011;23691;52.486;4.650;2023-08-06T00:49:29;11.55;;;5.57;;
37851;SDS011;23691;52.486;4.650;2023-08-06T00:51:54;10.68;;;5.25;;
37851;SDS011;23691;52.486;4.650;2023-08-06T00:54:21;11.77;;;5.18;;
37851;SDS011;23691;52.486;4.650;2023-08-06T00:56:50;12.18;;;5.35;;
37851;SDS011;23691;52.486;4.650;2023-08-06T00:59:15;11.27;;;5.93;;
37851;SDS011;23691;52.486;4.650;2023-08-06T01:01:41;12.23;;;5.47;;
37851;SDS011;23691;52.486;4.650;2023-08-06T01:04:07;11.68;;;5.95;;
37851;SDS011;23691;52.486;4.650;2023-08-06T01:06:35;10.50;;;5.35;;
37851;SDS011;23691;52.486;4.650;2023-08-06T01:09:16;13.32;;;5.57;;
37851;SDS011;23691;52.486;4.650;2023-08-06T01:11:59;9.63;;;5.40;;
37851;SDS011;23691;52.486;4.650;2023-08-06T01:14:47;10.20;;;4.88;;
37851;SDS011;23691;52.486;4.650;2023-08-06T01:17:20;10.75;;;5.75;;
37851;SDS011;23691;52.486;4.650;2023-08-06T01:19:45;9.48;;;5.47;;
37851;SDS011;23691;52.486;4.650;2023-08-06T01:22:10;9.82;;;6.18;;
37851;SDS011;23691;52.486;4.650;2023-08-06T01:24:38;11.00;;;5.82;;
37851;SDS011;23691;52.486;4.650;2023-08-06T01:27:10;10.52;;;5.68;;
37851;SDS011;23691;52.486;4.650;2023-08-06T01:32:36;9.82;;;5.55;;
37851;SDS011;23691;52.486;4.650;2023-08-06T01:35:04;9.55;;;5.60;;
37851;SDS011;23691;52.486;4.650;2023-08-06T01:37:30;10.45;;;5.55;;
37851;SDS011;23691;52.486;4.650;2023-08-06T01:39:56;10.77;;;5.88;;
37851;SDS011;23691;52.486;4.650;2023-08-06T01:42:22;10.10;;;5.85;;
37851;SDS011;23691;52.486;4.650;2023-08-06T01:44:47;11.68;;;6.50;;
37851;SDS011;23691;52.486;4.650;2023-08-06T01:47:13;11.93;;;7.05;;
37851;SDS011;23691;52.486;4.650;2023-08-06T01:49:38;11.70;;;6.28;;
37851;SDS011;23691;52.486;4.650;2023-08-06T01:52:04;10.85;;;5.95;;
37851;SDS011;23691;52.486;4.650;2023-08-06T01:54:32;9.95;;;5.88;;
37851;SDS011;23691;52.486;4.650;2023-08-06T01:56:57;11.77;;;6.80;;
37851;SDS011;23691;52.486;4.650;2023-08-06T01:59:23;11.95;;;6.85;;
37851;SDS011;23691;52.486;4.650;2023-08-06T02:01:49;12.77;;;7.38;;
37851;SDS011;23691;52.486;4.650;2023-08-06T02:04:14;11.10;;;6.88;;
37851;SDS011;23691;52.486;4.650;2023-08-06T02:06:40;11.63;;;6.65;;
37851;SDS011;23691;52.486;4.650;2023-08-06T02:09:05;12.43;;;6.35;;
37851;SDS011;23691;52.486;4.650;2023-08-06T02:11:30;12.70;;;6.70;;
37851;SDS011;23691;52.486;4.650;2023-08-06T02:13:59;11.15;;;6.22;;
37851;SDS011;23691;52.486;4.650;2023-08-06T02:16:24;9.52;;;5.32;;
37851;SDS011;23691;52.486;4.650;2023-08-06T02:18:52;10.05;;;5.82;;
37851;SDS011;23691;52.486;4.650;2023-08-06T02:21:17;12.38;;;6.28;;
37851;SDS011;23691;52.486;4.650;2023-08-06T02:23:43;10.80;;;5.93;;
37851;SDS011;23691;52.486;4.650;2023-08-06T02:26:08;9.82;;;5.30;;
37851;SDS011;23691;52.486;4.650;2023-08-06T02:28:34;10.45;;;5.00;;
37851;SDS011;23691;52.486;4.650;2023-08-06T02:30:59;8.65;;;4.38;;
37851;SDS011;23691;52.486;4.650;2023-08-06T02:33:25;7.63;;;3.45;;
37851;SDS011;23691;52.486;4.650;2023-08-06T02:35:50;6.22;;;2.78;;
37851;SDS011;23691;52.486;4.650;2023-08-06T02:38:16;7.95;;;2.63;;
37851;SDS011;23691;52.486;4.650;2023-08-06T02:40:46;7.00;;;2.40;;
37851;SDS011;23691;52.486;4.650;2023-08-06T02:43:14;6.13;;;2.25;;
37851;SDS011;23691;52.486;4.650;2023-08-06T02:45:39;6.10;;;2.20;;
37851;SDS011;23691;52.486;4.650;2023-08-06T02:48:05;6.60;;;1.90;;
37851;SDS011;23691;52.486;4.650;2023-08-06T02:50:31;5.80;;;1.90;;
37851;SDS011;23691;52.486;4.650;2023-08-06T02:53:02;4.50;;;1.70;;
37851;SDS011;23691;52.486;4.650;2023-08-06T02:55:27;4.60;;;1.60;;
37851;SDS011;23691;52.486;4.650;2023-08-06T02:57:53;4.03;;;1.48;;
37851;SDS011;23691;52.486;4.650;2023-08-06T03:00:18;4.07;;;1.60;;
37851;SDS011;23691;52.486;4.650;2023-08-06T03:02:43;6.55;;;1.77;;
37851;SDS011;23691;52.486;4.650;2023-08-06T03:05:09;4.72;;;1.52;;
37851;SDS011;23691;52.486;4.650;2023-08-06T03:07:34;4.43;;;1.70;;
37851;SDS011;23691;52.486;4.650;2023-08-06T03:10:01;3.70;;;1.60;;
37851;SDS011;23691;52.486;4.650;2023-08-06T03:12:27;6.43;;;1.58;;
37851;SDS011;23691;52.486;4.650;2023-08-06T03:14:52;5.90;;;1.60;;
37851;SDS011;23691;52.486;4.650;2023-08-06T03:17:17;4.65;;;1.73;;
37851;SDS011;23691;52.486;4.650;2023-08-06T03:19:43;6.97;;;1.88;;
37851;SDS011;23691;52.486;4.650;2023-08-06T03:22:08;5.60;;;1.70;;
37851;SDS011;23691;52.486;4.650;2023-08-06T03:24:36;6.60;;;1.95;;
37851;SDS011;23691;52.486;4.650;2023-08-06T03:27:02;4.70;;;1.60;;
37851;SDS011;23691;52.486;4.650;2023-08-06T03:29:27;6.72;;;1.55;;
37851;SDS011;23691;52.486;4.650;2023-08-06T03:31:53;5.93;;;1.50;;
37851;SDS011;23691;52.486;4.650;2023-08-06T03:34:18;5.85;;;1.40;;
37851;SDS011;23691;52.486;4.650;2023-08-06T03:36:44;5.47;;;1.50;;
37851;SDS011;23691;52.486;4.650;2023-08-06T03:39:10;4.97;;;1.40;;
37851;SDS011;23691;52.486;4.650;2023-08-06T03:41:35;6.88;;;1.50;;
37851;SDS011;23691;52.486;4.650;2023-08-06T03:44:01;3.47;;;1.30;;
37851;SDS011;23691;52.486;4.650;2023-08-06T03:46:28;5.05;;;1.25;;
37851;SDS011;23691;52.486;4.650;2023-08-06T03:48:54;3.45;;;1.20;;
37851;SDS011;23691;52.486;4.650;2023-08-06T03:51:20;4.45;;;1.42;;
37851;SDS011;23691;52.486;4.650;2023-08-06T03:53:48;2.88;;;1.25;;
37851;SDS011;23691;52.486;4.650;2023-08-06T03:56:13;5.50;;;1.60;;
37851;SDS011;23691;52.486;4.650;2023-08-06T03:58:39;3.88;;;1.55;;
37851;SDS011;23691;52.486;4.650;2023-08-06T04:03:35;3.75;;;1.80;;
37851;SDS011;23691;52.486;4.650;2023-08-06T04:06:02;5.82;;;2.17;;
37851;SDS011;23691;52.486;4.650;2023-08-06T04:08:31;5.82;;;2.30;;
37851;SDS011;23691;52.486;4.650;2023-08-06T04:10:57;5.97;;;2.50;;
37851;SDS011;23691;52.486;4.650;2023-08-06T04:13:22;6.53;;;2.83;;
37851;SDS011;23691;52.486;4.650;2023-08-06T04:15:47;5.97;;;2.42;;
37851;SDS011;23691;52.486;4.650;2023-08-06T04:18:15;7.85;;;2.92;;
37851;SDS011;23691;52.486;4.650;2023-08-06T04:23:17;5.85;;;2.42;;
37851;SDS011;23691;52.486;4.650;2023-08-06T04:25:43;4.72;;;1.70;;
37851;SDS011;23691;52.486;4.650;2023-08-06T04:28:08;4.40;;;1.70;;
37851;SDS011;23691;52.486;4.650;2023-08-06T04:30:33;4.20;;;1.40;;
37851;SDS011;23691;52.486;4.650;2023-08-06T04:33:04;3.30;;;1.52;;
37851;SDS011;23691;52.486;4.650;2023-08-06T04:35:29;3.70;;;1.35;;
37851;SDS011;23691;52.486;4.650;2023-08-06T04:37:55;3.80;;;1.15;;
37851;SDS011;23691;52.486;4.650;2023-08-06T04:40:20;3.22;;;1.50;;
37851;SDS011;23691;52.486;4.650;2023-08-06T04:42:49;3.75;;;1.20;;
37851;SDS011;23691;52.486;4.650;2023-08-06T04:45:14;3.30;;;1.30;;
37851;SDS011;23691;52.486;4.650;2023-08-06T04:47:39;3.42;;;1.52;;
37851;SDS011;23691;52.486;4.650;2023-08-06T04:50:05;4.10;;;1.50;;
37851;SDS011;23691;52.486;4.650;2023-08-06T04:52:31;4.75;;;1.73;;
37851;SDS011;23691;52.486;4.650;2023-08-06T04:54:57;4.28;;;1.92;;
37851;SDS011;23691;52.486;4.650;2023-08-06T04:57:23;4.32;;;1.83;;
37851;SDS011;23691;52.486;4.650;2023-08-06T04:59:48;5.13;;;2.10;;
37851;SDS011;23691;52.486;4.650;2023-08-06T05:02:14;4.88;;;1.95;;
37851;SDS011;23691;52.486;4.650;2023-08-06T05:04:44;5.00;;;1.77;;
37851;SDS011;23691;52.486;4.650;2023-08-06T05:07:12;4.57;;;1.70;;
37851;SDS011;23691;52.486;4.650;2023-08-06T05:09:38;5.28;;;1.85;;
37851;SDS011;23691;52.486;4.650;2023-08-06T05:12:03;4.97;;;1.88;;
37851;SDS011;23691;52.486;4.650;2023-08-06T05:14:29;5.32;;;2.08;;
37851;SDS011;23691;52.486;4.650;2023-08-06T05:16:54;6.55;;;2.20;;
37851;SDS011;23691;52.486;4.650;2023-08-06T05:19:26;5.43;;;2.10;;
37851;SDS011;23691;52.486;4.650;2023-08-06T05:21:59;5.85;;;2.20;;
37851;SDS011;23691;52.486;4.650;2023-08-06T05:24:26;7.80;;;2.30;;
37851;SDS011;23691;52.486;4.650;2023-08-06T05:26:51;7.30;;;2.53;;
37851;SDS011;23691;52.486;4.650;2023-08-06T05:29:16;6.68;;;2.45;;
37851;SDS011;23691;52.486;4.650;2023-08-06T05:31:42;7.28;;;2.30;;
37851;SDS011;23691;52.486;4.650;2023-08-06T05:36:35;7.03;;;2.65;;
37851;SDS011;23691;52.486;4.650;2023-08-06T05:39:03;8.25;;;2.70;;
37851;SDS011;23691;52.486;4.650;2023-08-06T05:41:31;6.40;;;2.40;;
37851;SDS011;23691;52.486;4.650;2023-08-06T05:44:07;5.82;;;2.30;;
37851;SDS011;23691;52.486;4.650;2023-08-06T05:46:44;7.88;;;2.70;;
37851;SDS011;23691;52.486;4.650;2023-08-06T05:53:55;7.25;;;2.47;;
37851;SDS011;23691;52.486;4.650;2023-08-06T05:56:23;8.20;;;3.00;;
37851;SDS011;23691;52.486;4.650;2023-08-06T05:59:30;6.57;;;2.40;;
37851;SDS011;23691;52.486;4.650;2023-08-06T06:06:08;5.68;;;2.08;;
37851;SDS011;23691;52.486;4.650;2023-08-06T06:08:36;7.50;;;2.90;;
37851;SDS011;23691;52.486;4.650;2023-08-06T06:11:12;10.20;;;2.83;;
37851;SDS011;23691;52.486;4.650;2023-08-06T06:13:40;5.00;;;2.10;;
37851;SDS011;23691;52.486;4.650;2023-08-06T06:16:24;6.70;;;2.28;;
37851;SDS011;23691;52.486;4.650;2023-08-06T06:18:52;5.95;;;2.33;;
37851;SDS011;23691;52.486;4.650;2023-08-06T06:21:26;6.13;;;2.10;;
37851;SDS011;23691;52.486;4.650;2023-08-06T06:23:58;7.03;;;2.25;;
37851;SDS011;23691;52.486;4.650;2023-08-06T06:26:29;7.45;;;2.60;;
37851;SDS011;23691;52.486;4.650;2023-08-06T06:28:55;7.88;;;2.35;;
37851;SDS011;23691;52.486;4.650;2023-08-06T06:31:31;8.98;;;2.75;;
37851;SDS011;23691;52.486;4.650;2023-08-06T06:34:07;5.85;;;2.33;;
37851;SDS011;23691;52.486;4.650;2023-08-06T06:38:58;5.75;;;2.28;;
37851;SDS011;23691;52.486;4.650;2023-08-06T06:41:30;7.20;;;2.50;;
37851;SDS011;23691;52.486;4.650;2023-08-06T06:44:27;7.20;;;2.50;;
37851;SDS011;23691;52.486;4.650;2023-08-06T06:47:49;7.25;;;2.35;;
37851;SDS011;23691;52.486;4.650;2023-08-06T06:50:40;7.85;;;2.70;;
37851;SDS011;23691;52.486;4.650;2023-08-06T06:53:06;5.78;;;2.20;;
37851;SDS011;23691;52.486;4.650;2023-08-06T06:55:55;9.15;;;2.80;;
37851;SDS011;23691;52.486;4.650;2023-08-06T06:58:33;8.98;;;2.60;;
37851;SDS011;23691;52.486;4.650;2023-08-06T07:01:06;7.70;;;2.70;;
37851;SDS011;23691;52.486;4.650;2023-08-06T07:03:37;8.85;;;2.58;;
37851;SDS011;23691;52.486;4.650;2023-08-06T07:06:06;8.07;;;2.60;;
37851;SDS011;23691;52.486;4.650;2023-08-06T07:08:35;8.65;;;2.70;;
37851;SDS011;23691;52.486;4.650;2023-08-06T07:11:02;9.13;;;2.80;;
37851;SDS011;23691;52.486;4.650;2023-08-06T07:13:36;9.75;;;2.80;;
37851;SDS011;23691;52.486;4.650;2023-08-06T07:16:02;10.93;;;3.15;;
37851;SDS011;23691;52.486;4.650;2023-08-06T07:18:30;9.48;;;2.85;;
37851;SDS011;23691;52.486;4.650;2023-08-06T07:21:01;8.07;;;2.30;;
37851;SDS011;23691;52.486;4.650;2023-08-06T07:23:27;9.40;;;2.58;;
37851;SDS011;23691;52.486;4.650;2023-08-06T07:25:53;8.35;;;2.28;;
37851;SDS011;23691;52.486;4.650;2023-08-06T07:28:19;6.90;;;2.10;;
37851;SDS011;23691;52.486;4.650;2023-08-06T07:30:45;9.30;;;2.47;;
37851;SDS011;23691;52.486;4.650;2023-08-06T07:33:36;9.77;;;3.03;;
37851;SDS011;23691;52.486;4.650;2023-08-06T07:36:12;6.63;;;2.22;;
37851;SDS011;23691;52.486;4.650;2023-08-06T07:38:48;7.43;;;2.20;;
37851;SDS011;23691;52.486;4.650;2023-08-06T07:41:27;7.03;;;2.00;;
37851;SDS011;23691;52.486;4.650;2023-08-06T07:44:05;8.65;;;2.22;;
37851;SDS011;23691;52.486;4.650;2023-08-06T07:49:40;8.73;;;2.00;;
37851;SDS011;23691;52.486;4.650;2023-08-06T07:52:07;6.90;;;1.83;;
37851;SDS011;23691;52.486;4.650;2023-08-06T07:55:09;7.15;;;1.80;;
37851;SDS011;23691;52.486;4.650;2023-08-06T07:57:35;10.18;;;2.95;;
37851;SDS011;23691;52.486;4.650;2023-08-06T08:00:12;9.10;;;1.92;;
37851;SDS011;23691;52.486;4.650;2023-08-06T08:02:48;7.03;;;1.80;;
37851;SDS011;23691;52.486;4.650;2023-08-06T08:05:40;7.70;;;1.88;;
37851;SDS011;23691;52.486;4.650;2023-08-06T08:08:30;6.63;;;1.88;;
37851;SDS011;23691;52.486;4.650;2023-08-06T08:11:20;6.43;;;1.48;;
37851;SDS011;23691;52.486;4.650;2023-08-06T08:13:57;6.60;;;1.70;;
37851;SDS011;23691;52.486;4.650;2023-08-06T08:20:25;5.18;;;1.30;;
37851;SDS011;23691;52.486;4.650;2023-08-06T08:23:42;7.28;;;1.45;;
37851;SDS011;23691;52.486;4.650;2023-08-06T08:26:23;4.47;;;1.30;;
37851;SDS011;23691;52.486;4.650;2023-08-06T08:29:27;6.60;;;1.20;;
37851;SDS011;23691;52.486;4.650;2023-08-06T08:32:02;6.75;;;1.25;;
37851;SDS011;23691;52.486;4.650;2023-08-06T08:34:32;5.72;;;1.10;;
37851;SDS011;23691;52.486;4.650;2023-08-06T08:37:02;3.90;;;1.20;;
37851;SDS011;23691;52.486;4.650;2023-08-06T08:40:05;7.45;;;1.45;;
37851;SDS011;23691;52.486;4.650;2023-08-06T08:45:44;3.45;;;1.02;;
37851;SDS011;23691;52.486;4.650;2023-08-06T08:48:30;4.13;;;1.10;;
37851;SDS011;23691;52.486;4.650;2023-08-06T08:51:27;6.85;;;1.08;;
37851;SDS011;23691;52.486;4.650;2023-08-06T08:54:11;6.22;;;1.27;;
37851;SDS011;23691;52.486;4.650;2023-08-06T08:57:54;4.57;;;0.80;;
37851;SDS011;23691;52.486;4.650;2023-08-06T09:00:20;6.05;;;1.40;;
37851;SDS011;23691;52.486;4.650;2023-08-06T09:02:45;5.70;;;0.80;;
37851;SDS011;23691;52.486;4.650;2023-08-06T09:05:11;3.38;;;0.90;;
37851;SDS011;23691;52.486;4.650;2023-08-06T09:07:41;5.65;;;1.20;;
37851;SDS011;23691;52.486;4.650;2023-08-06T09:10:10;3.92;;;1.00;;
37851;SDS011;23691;52.486;4.650;2023-08-06T09:12:36;5.97;;;1.05;;
37851;SDS011;23691;52.486;4.650;2023-08-06T09:15:02;8.40;;;1.20;;
37851;SDS011;23691;52.486;4.650;2023-08-06T09:17:28;8.15;;;1.10;;
37851;SDS011;23691;52.486;4.650;2023-08-06T09:19:54;4.47;;;1.02;;
37851;SDS011;23691;52.486;4.650;2023-08-06T09:22:19;4.38;;;1.08;;
37851;SDS011;23691;52.486;4.650;2023-08-06T09:24:45;3.75;;;0.95;;
37851;SDS011;23691;52.486;4.650;2023-08-06T09:27:14;4.57;;;1.00;;
37851;SDS011;23691;52.486;4.650;2023-08-06T09:29:40;3.67;;;0.90;;
37851;SDS011;23691;52.486;4.650;2023-08-06T09:32:10;2.95;;;0.82;;
37851;SDS011;23691;52.486;4.650;2023-08-06T09:34:38;3.15;;;0.90;;
37851;SDS011;23691;52.486;4.650;2023-08-06T09:37:05;3.40;;;0.60;;
37851;SDS011;23691;52.486;4.650;2023-08-06T09:39:30;2.47;;;0.80;;
37851;SDS011;23691;52.486;4.650;2023-08-06T09:41:57;6.47;;;1.15;;
37851;SDS011;23691;52.486;4.650;2023-08-06T09:44:23;4.35;;;0.80;;
37851;SDS011;23691;52.486;4.650;2023-08-06T09:46:51;4.80;;;1.00;;
37851;SDS011;23691;52.486;4.650;2023-08-06T09:49:19;3.45;;;0.95;;
37851;SDS011;23691;52.486;4.650;2023-08-06T09:51:45;3.30;;;0.80;;
37851;SDS011;23691;52.486;4.650;2023-08-06T09:54:15;4.43;;;1.00;;
37851;SDS011;23691;52.486;4.650;2023-08-06T09:56:41;4.75;;;1.00;;
37851;SDS011;23691;52.486;4.650;2023-08-06T09:59:07;6.38;;;1.00;;
37851;SDS011;23691;52.486;4.650;2023-08-06T10:01:34;5.10;;;1.10;;
37851;SDS011;23691;52.486;4.650;2023-08-06T10:04:03;6.50;;;1.30;;
37851;SDS011;23691;52.486;4.650;2023-08-06T10:06:34;4.90;;;1.00;;
37851;SDS011;23691;52.486;4.650;2023-08-06T10:09:01;4.43;;;1.08;;
37851;SDS011;23691;52.486;4.650;2023-08-06T10:11:27;3.20;;;0.90;;
37851;SDS011;23691;52.486;4.650;2023-08-06T10:13:55;6.90;;;1.10;;
37851;SDS011;23691;52.486;4.650;2023-08-06T10:16:42;6.03;;;1.05;;
37851;SDS011;23691;52.486;4.650;2023-08-06T10:19:09;3.58;;;0.90;;
37851;SDS011;23691;52.486;4.650;2023-08-06T10:21:39;4.13;;;0.80;;
37851;SDS011;23691;52.486;4.650;2023-08-06T10:24:06;3.72;;;0.80;;
37851;SDS011;23691;52.486;4.650;2023-08-06T10:26:36;5.88;;;0.77;;
37851;SDS011;23691;52.486;4.650;2023-08-06T10:29:02;4.25;;;0.90;;
37851;SDS011;23691;52.486;4.650;2023-08-06T10:32:16;2.67;;;0.70;;
37851;SDS011;23691;52.486;4.650;2023-08-06T10:34:59;3.10;;;0.68;;
37851;SDS011;23691;52.486;4.650;2023-08-06T10:37:38;1.88;;;0.70;;
37851;SDS011;23691;52.486;4.650;2023-08-06T10:42:31;3.17;;;1.02;;
37851;SDS011;23691;52.486;4.650;2023-08-06T10:45:15;2.70;;;0.80;;
37851;SDS011;23691;52.486;4.650;2023-08-06T10:47:44;3.33;;;1.00;;
37851;SDS011;23691;52.486;4.650;2023-08-06T10:50:18;4.30;;;0.88;;
37851;SDS011;23691;52.486;4.650;2023-08-06T10:55:37;4.70;;;0.75;;
37851;SDS011;23691;52.486;4.650;2023-08-06T10:58:03;5.03;;;1.10;;
37851;SDS011;23691;52.486;4.650;2023-08-06T11:00:29;2.50;;;0.90;;
37851;SDS011;23691;52.486;4.650;2023-08-06T11:02:57;3.15;;;1.00;;
37851;SDS011;23691;52.486;4.650;2023-08-06T11:05:22;5.68;;;1.10;;
37851;SDS011;23691;52.486;4.650;2023-08-06T11:07:48;2.97;;;0.80;;
37851;SDS011;23691;52.486;4.650;2023-08-06T11:10:14;6.47;;;1.05;;
37851;SDS011;23691;52.486;4.650;2023-08-06T11:12:40;5.82;;;1.10;;
37851;SDS011;23691;52.486;4.650;2023-08-06T11:15:05;7.28;;;1.33;;
37851;SDS011;23691;52.486;4.650;2023-08-06T11:17:33;3.60;;;1.08;;
37851;SDS011;23691;52.486;4.650;2023-08-06T11:20:00;5.20;;;1.30;;
37851;SDS011;23691;52.486;4.650;2023-08-06T11:22:33;4.32;;;1.10;;
37851;SDS011;23691;52.486;4.650;2023-08-06T11:24:59;3.40;;;1.00;;
37851;SDS011;23691;52.486;4.650;2023-08-06T11:27:26;4.50;;;0.90;;
37851;SDS011;23691;52.486;4.650;2023-08-06T11:29:57;4.75;;;0.95;;
37851;SDS011;23691;52.486;4.650;2023-08-06T11:32:25;4.07;;;0.80;;
37851;SDS011;23691;52.486;4.650;2023-08-06T11:34:53;6.63;;;1.00;;
37851;SDS011;23691;52.486;4.650;2023-08-06T11:37:23;3.70;;;1.00;;
37851;SDS011;23691;52.486;4.650;2023-08-06T11:39:50;4.07;;;0.80;;
37851;SDS011;23691;52.486;4.650;2023-08-06T11:42:16;5.18;;;0.82;;
37851;SDS011;23691;52.486;4.650;2023-08-06T11:44:44;5.10;;;0.93;;
37851;SDS011;23691;52.486;4.650;2023-08-06T11:47:14;3.45;;;0.88;;
37851;SDS011;23691;52.486;4.650;2023-08-06T11:49:44;4.07;;;0.80;;
37851;SDS011;23691;52.486;4.650;2023-08-06T11:55:07;1.80;;;0.60;;
37851;SDS011;23691;52.486;4.650;2023-08-06T11:57:36;3.20;;;0.80;;
37851;SDS011;23691;52.486;4.650;2023-08-06T12:00:05;3.13;;;0.85;;
37851;SDS011;23691;52.486;4.650;2023-08-06T12:02:35;3.97;;;0.98;;
37851;SDS011;23691;52.486;4.650;2023-08-06T12:05:03;2.88;;;1.00;;
37851;SDS011;23691;52.486;4.650;2023-08-06T12:07:36;3.85;;;0.85;;
37851;SDS011;23691;52.486;4.650;2023-08-06T12:10:04;3.58;;;1.00;;
37851;SDS011;23691;52.486;4.650;2023-08-06T12:12:30;3.72;;;1.00;;
37851;SDS011;23691;52.486;4.650;2023-08-06T12:14:55;3.47;;;1.00;;
37851;SDS011;23691;52.486;4.650;2023-08-06T12:17:22;4.72;;;1.02;;
37851;SDS011;23691;52.486;4.650;2023-08-06T12:19:49;5.85;;;1.00;;
37851;SDS011;23691;52.486;4.650;2023-08-06T12:22:14;5.60;;;1.13;;
37851;SDS011;23691;52.486;4.650;2023-08-06T12:24:49;3.92;;;0.77;;
37851;SDS011;23691;52.486;4.650;2023-08-06T12:27:32;1.63;;;0.70;;
37851;SDS011;23691;52.486;4.650;2023-08-06T12:30:17;2.70;;;0.60;;
37851;SDS011;23691;52.486;4.650;2023-08-06T12:32:51;2.70;;;0.65;;
37851;SDS011;23691;52.486;4.650;2023-08-06T12:35:22;4.65;;;0.90;;
37851;SDS011;23691;52.486;4.650;2023-08-06T12:38:10;2.22;;;0.75;;
37851;SDS011;23691;52.486;4.650;2023-08-06T12:40:39;2.92;;;0.85;;
37851;SDS011;23691;52.486;4.650;2023-08-06T12:43:14;4.35;;;1.00;;
37851;SDS011;23691;52.486;4.650;2023-08-06T12:46:02;4.63;;;0.82;;
37851;SDS011;23691;52.486;4.650;2023-08-06T12:48:29;5.67;;;1.20;;
37851;SDS011;23691;52.486;4.650;2023-08-06T12:51:05;4.38;;;1.00;;
37851;SDS011;23691;52.486;4.650;2023-08-06T12:53:45;5.28;;;1.10;;
37851;SDS011;23691;52.486;4.650;2023-08-06T12:56:17;5.93;;;1.20;;
37851;SDS011;23691;52.486;4.650;2023-08-06T12:58:53;4.13;;;0.90;;
37851;SDS011;23691;52.486;4.650;2023-08-06T13:01:30;6.40;;;1.27;;
37851;SDS011;23691;52.486;4.650;2023-08-06T13:04:04;3.53;;;0.85;;
37851;SDS011;23691;52.486;4.650;2023-08-06T13:07:11;3.72;;;0.98;;
37851;SDS011;23691;52.486;4.650;2023-08-06T13:10:19;5.10;;;0.98;;
37851;SDS011;23691;52.486;4.650;2023-08-06T13:13:10;3.55;;;1.00;;
37851;SDS011;23691;52.486;4.650;2023-08-06T13:19:06;4.03;;;0.88;;
37851;SDS011;23691;52.486;4.650;2023-08-06T13:27:39;5.30;;;0.70;;
37851;SDS011;23691;52.486;4.650;2023-08-06T13:33:01;5.78;;;1.20;;
37851;SDS011;23691;52.486;4.650;2023-08-06T13:35:43;8.80;;;1.40;;
37851;SDS011;23691;52.486;4.650;2023-08-06T13:38:31;8.95;;;1.30;;
37851;SDS011;23691;52.486;4.650;2023-08-06T13:44:06;7.18;;;1.48;;
37851;SDS011;23691;52.486;4.650;2023-08-06T13:46:40;9.80;;;1.67;;
37851;SDS011;23691;52.486;4.650;2023-08-06T13:49:06;6.50;;;1.20;;
37851;SDS011;23691;52.486;4.650;2023-08-06T13:51:38;7.40;;;1.20;;
37851;SDS011;23691;52.486;4.650;2023-08-06T13:54:27;8.90;;;1.35;;
37851;SDS011;23691;52.486;4.650;2023-08-06T13:56:53;7.50;;;1.20;;
37851;SDS011;23691;52.486;4.650;2023-08-06T13:59:19;9.88;;;0.90;;
37851;SDS011;23691;52.486;4.650;2023-08-06T14:01:50;10.38;;;1.50;;
37851;SDS011;23691;52.486;4.650;2023-08-06T14:04:19;8.85;;;1.23;;
37851;SDS011;23691;52.486;4.650;2023-08-06T14:06:47;9.57;;;1.30;;
37851;SDS011;23691;52.486;4.650;2023-08-06T14:09:26;5.57;;;0.88;;
37851;SDS011;23691;52.486;4.650;2023-08-06T14:11:53;6.18;;;1.02;;
37851;SDS011;23691;52.486;4.650;2023-08-06T14:14:19;11.98;;;1.50;;
37851;SDS011;23691;52.486;4.650;2023-08-06T14:16:54;10.15;;;1.30;;
37851;SDS011;23691;52.486;4.650;2023-08-06T14:19:20;9.18;;;1.50;;
37851;SDS011;23691;52.486;4.650;2023-08-06T14:21:46;9.35;;;1.23;;
37851;SDS011;23691;52.486;4.650;2023-08-06T14:24:21;11.40;;;1.40;;
37851;SDS011;23691;52.486;4.650;2023-08-06T14:26:51;11.90;;;1.63;;
37851;SDS011;23691;52.486;4.650;2023-08-06T14:29:19;12.63;;;1.67;;
37851;SDS011;23691;52.486;4.650;2023-08-06T14:31:59;11.57;;;1.75;;
37851;SDS011;23691;52.486;4.650;2023-08-06T14:34:30;11.45;;;1.85;;
37851;SDS011;23691;52.486;4.650;2023-08-06T14:37:26;9.27;;;1.38;;
37851;SDS011;23691;52.486;4.650;2023-08-06T14:39:56;11.07;;;1.77;;
37851;SDS011;23691;52.486;4.650;2023-08-06T14:42:25;9.20;;;1.20;;
37851;SDS011;23691;52.486;4.650;2023-08-06T14:47:23;13.45;;;1.88;;
37851;SDS011;23691;52.486;4.650;2023-08-06T14:49:49;12.43;;;1.67;;
37851;SDS011;23691;52.486;4.650;2023-08-06T14:52:22;11.95;;;1.77;;
37851;SDS011;23691;52.486;4.650;2023-08-06T14:54:47;10.15;;;1.50;;
37851;SDS011;23691;52.486;4.650;2023-08-06T14:57:17;13.13;;;1.85;;
37851;SDS011;23691;52.486;4.650;2023-08-06T14:59:43;13.70;;;1.80;;
37851;SDS011;23691;52.486;4.650;2023-08-06T15:02:11;11.43;;;1.45;;
37851;SDS011;23691;52.486;4.650;2023-08-06T15:04:37;12.00;;;1.67;;
37851;SDS011;23691;52.486;4.650;2023-08-06T15:07:02;11.13;;;1.58;;
37851;SDS011;23691;52.486;4.650;2023-08-06T15:09:28;11.15;;;1.58;;
37851;SDS011;23691;52.486;4.650;2023-08-06T15:11:53;9.63;;;1.38;;
37851;SDS011;23691;52.486;4.650;2023-08-06T15:14:19;8.88;;;1.40;;
37851;SDS011;23691;52.486;4.650;2023-08-06T15:16:46;9.60;;;1.63;;
37851;SDS011;23691;52.486;4.650;2023-08-06T15:19:12;12.63;;;1.70;;
37851;SDS011;23691;52.486;4.650;2023-08-06T15:21:37;10.30;;;1.58;;
37851;SDS011;23691;52.486;4.650;2023-08-06T15:24:05;10.88;;;1.55;;
37851;SDS011;23691;52.486;4.650;2023-08-06T15:26:33;11.43;;;1.40;;
37851;SDS011;23691;52.486;4.650;2023-08-06T15:28:59;12.73;;;1.33;;
37851;SDS011;23691;52.486;4.650;2023-08-06T15:31:25;12.90;;;1.92;;
37851;SDS011;23691;52.486;4.650;2023-08-06T15:34:04;12.40;;;2.00;;
37851;SDS011;23691;52.486;4.650;2023-08-06T15:36:32;10.30;;;1.90;;
37851;SDS011;23691;52.486;4.650;2023-08-06T15:38:58;9.10;;;1.35;;
37851;SDS011;23691;52.486;4.650;2023-08-06T15:41:24;12.27;;;1.70;;
37851;SDS011;23691;52.486;4.650;2023-08-06T15:43:49;14.13;;;1.92;;
37851;SDS011;23691;52.486;4.650;2023-08-06T15:46:16;13.50;;;1.90;;
37851;SDS011;23691;52.486;4.650;2023-08-06T15:48:43;10.90;;;1.40;;
37851;SDS011;23691;52.486;4.650;2023-08-06T15:51:10;9.38;;;1.38;;
37851;SDS011;23691;52.486;4.650;2023-08-06T15:53:35;12.00;;;1.80;;
37851;SDS011;23691;52.486;4.650;2023-08-06T15:56:01;10.68;;;1.60;;
37851;SDS011;23691;52.486;4.650;2023-08-06T15:58:30;15.68;;;2.03;;
37851;SDS011;23691;52.486;4.650;2023-08-06T16:00:58;11.82;;;2.00;;
37851;SDS011;23691;52.486;4.650;2023-08-06T16:03:24;14.80;;;2.30;;